Briefing drone pour Beaumont-les-valence

Rechercher une autre localisation

Conditions de vol :


Nous sommes le : Vendredi 22 octobre 2021
Il est 02:35 UTC (04:35 LT)

Lever de soleil : 05:38 UTC (07:38 LT)
Coucher de soleil : 17:10 UTC (19:10 LT)

Météo

L'essentiel des conditions de vol

VIGILANCE MÉTÉO FRANCE - Drôme (26)
Pas de vigilances particulieres
CARTE TEMSI
CARTES DES FRONTS
METAR de LFLU
LFLU 211800Z AUTO 31005KT CAVOK 14/06 Q1016

Date d'émission: 21/10/2021
Heure d'émission: 18:00 UTC
Vent: 310° pour 5 KT (9 km/h)
Visibilité horizontale: > 10 km
Plafond : Plafond et visibilité OK (CAVOK)
Température: 14 °C
Point de rosée: 6 °C
Humidité: 59%
Pression (QNH): 1016 hPa
Prévision 24h pour Valence (6 km)
Vent : 20° pour 6 KT (21 km/h)
Temperature Maxi: 9 °C
Temperature Min: 9 °C
Humidité : 62%
Condition : Partiellement nuageux



Warning: count(): Parameter must be an array or an object that implements Countable in /homepages/6/d509196549/htdocs/droneoxygene/briefing.php on line 743
WEBCAM POUR BEAUMONT-LES-VALENCE

Réglementation

Voler en sécurité

CARTES AERONAUTIQUE 1/500.000
CARTES VAC (LFLU)
SUP AIP




Chargement des AIP...
NOTAM (BEAUMONT-LES-VALENCE + Terrain à proximité / FIR )




Chargement des NOTAMS...
CONTACT PREFECTURE 26
Drôme (26) : ddt-satem@drome.gouv.fr


Avertissement : Les données mises à disposition sont indicatives. Oxygène Drone ne pourra être tenu responsable de dégâts causés aux biens et aux personnes.